PTI737 NZAA-YSSY
Flight info
| Callsign | PTI737 |
|---|---|
| Flight time | 2h 55m |
| Altitude | 40000 |
| Route | VELMO DCT 38S163E DCT PLUGA DCT RIKNI N774 MARLN |
| Aircraft | B737/M-SDE2E3FGHIRWXY/LB1 |
Departure
| Time | 2026-04-21 02:30 |
|---|---|
| Airport | Auckland International Airport (NZAA) |
Arrival
| Time | 2026-04-21 05:26 |
|---|---|
| Airport | Sydney Kingsford Smith International Airport (YSSY) |
| Time | Latitude | Longitude | Altitude | Speed | Heading |
|---|---|---|---|---|---|
| 2026-04-21 02:09 | -37.00755 | 174.77906 | 25 ft | 0 kts | 265° |
| 2026-04-21 02:23 | -37.00753 | 174.77931 | 29 ft | 4 kts | 268° |
| 2026-04-21 02:23 | -37.00753 | 174.77965 | 28 ft | 3 kts | 267° |
| 2026-04-21 02:24 | -37.00748 | 174.77995 | 30 ft | 4 kts | 236° |
| 2026-04-21 02:24 | -37.00729 | 174.78015 | 29 ft | 3 kts | 196° |
| 2026-04-21 02:24 | -37.00725 | 174.78016 | 28 ft | 1 kts | 194° |
| 2026-04-21 02:26 | -37.00754 | 174.78007 | 28 ft | 14 kts | 189° |
| 2026-04-21 02:26 | -37.00885 | 174.78050 | 28 ft | 20 kts | 161° |
| 2026-04-21 02:27 | -37.01017 | 174.78105 | 27 ft | 19 kts | 174° |
| 2026-04-21 02:27 | -37.01086 | 174.77980 | 25 ft | 18 kts | 251° |
| 2026-04-21 02:27 | -37.01128 | 174.77832 | 27 ft | 18 kts | 250° |
| 2026-04-21 02:27 | -37.01196 | 174.77736 | 26 ft | 15 kts | 178° |
| 2026-04-21 02:28 | -37.01277 | 174.77679 | 25 ft | 14 kts | 252° |
| 2026-04-21 02:28 | -37.01309 | 174.77563 | 25 ft | 14 kts | 250° |
| 2026-04-21 02:28 | -37.01342 | 174.77443 | 27 ft | 16 kts | 252° |
| 2026-04-21 02:28 | -37.01375 | 174.77314 | 25 ft | 15 kts | 252° |
| 2026-04-21 02:29 | -37.01407 | 174.77191 | 25 ft | 15 kts | 252° |
| 2026-04-21 02:29 | -37.01461 | 174.77100 | 26 ft | 11 kts | 193° |
| 2026-04-21 02:29 | -37.01533 | 174.77082 | 27 ft | 10 kts | 191° |
| 2026-04-21 02:29 | -37.01611 | 174.77099 | 26 ft | 19 kts | 122° |
| 2026-04-21 02:30 | -37.01529 | 174.77446 | 25 ft | 78 kts | 71° |
| 2026-04-21 02:30 | -37.01271 | 174.78391 | 27 ft | 147 kts | 71° |
| 2026-04-21 02:30 | -37.00894 | 174.79701 | 587 ft | 158 kts | 72° |
| 2026-04-21 02:30 | -37.00505 | 174.81007 | 1427 ft | 172 kts | 73° |
| 2026-04-21 02:31 | -37.00091 | 174.82540 | 1910 ft | 199 kts | 73° |
| 2026-04-21 02:31 | -36.99619 | 174.84267 | 2390 ft | 217 kts | 72° |
| 2026-04-21 02:31 | -36.99115 | 174.86068 | 3144 ft | 220 kts | 72° |
| 2026-04-21 02:31 | -36.98601 | 174.87890 | 3892 ft | 225 kts | 72° |
| 2026-04-21 02:32 | -36.98399 | 174.89811 | 4631 ft | 225 kts | 101° |
| 2026-04-21 02:32 | -36.98993 | 174.91613 | 5399 ft | 227 kts | 125° |
| 2026-04-21 02:32 | -37.00153 | 174.92866 | 6290 ft | 226 kts | 158° |
| 2026-04-21 02:32 | -37.01653 | 174.93548 | 7204 ft | 228 kts | 164° |
| 2026-04-21 02:33 | -37.03210 | 174.93671 | 8065 ft | 231 kts | 195° |
| 2026-04-21 02:33 | -37.04613 | 174.92676 | 8983 ft | 233 kts | 229° |
| 2026-04-21 02:33 | -37.05429 | 174.90965 | 9947 ft | 233 kts | 248° |
| 2026-04-21 02:33 | -37.05994 | 174.88989 | 10511 ft | 254 kts | 251° |
| 2026-04-21 02:34 | -37.06588 | 174.86733 | 10831 ft | 282 kts | 251° |
| 2026-04-21 02:34 | -37.07375 | 174.84443 | 11662 ft | 289 kts | 244° |
| 2026-04-21 02:34 | -37.08288 | 174.82185 | 12647 ft | 293 kts | 243° |
| 2026-04-21 02:34 | -37.09233 | 174.79900 | 13594 ft | 299 kts | 243° |
| 2026-04-21 02:35 | -37.10190 | 174.77573 | 14518 ft | 302 kts | 243° |
| 2026-04-21 02:35 | -37.11151 | 174.75217 | 15473 ft | 306 kts | 243° |
| 2026-04-21 02:35 | -37.12120 | 174.72821 | 16372 ft | 311 kts | 243° |
| 2026-04-21 02:35 | -37.13099 | 174.70384 | 17341 ft | 314 kts | 244° |
| 2026-04-21 02:36 | -37.14085 | 174.67918 | 18253 ft | 319 kts | 244° |
| 2026-04-21 02:36 | -37.15083 | 174.65414 | 19087 ft | 322 kts | 243° |
| 2026-04-21 02:36 | -37.16070 | 174.62933 | 19980 ft | 325 kts | 243° |
| 2026-04-21 02:36 | -37.17100 | 174.60338 | 20751 ft | 331 kts | 243° |
| 2026-04-21 02:37 | -37.18116 | 174.57774 | 21642 ft | 334 kts | 243° |
| 2026-04-21 02:37 | -37.19158 | 174.55143 | 22444 ft | 340 kts | 243° |
| 2026-04-21 02:37 | -37.20217 | 174.52467 | 23269 ft | 344 kts | 243° |
| 2026-04-21 02:37 | -37.21286 | 174.49760 | 23999 ft | 348 kts | 243° |
| 2026-04-21 02:38 | -37.22369 | 174.47018 | 24695 ft | 352 kts | 243° |
| 2026-04-21 02:38 | -37.23459 | 174.44253 | 25440 ft | 355 kts | 243° |
| 2026-04-21 02:38 | -37.24561 | 174.41458 | 26103 ft | 360 kts | 243° |
| 2026-04-21 02:38 | -37.25674 | 174.38632 | 26795 ft | 363 kts | 242° |
| 2026-04-21 02:39 | -37.26800 | 174.35770 | 27449 ft | 368 kts | 242° |
| 2026-04-21 02:39 | -37.27935 | 174.32880 | 28145 ft | 370 kts | 242° |
| 2026-04-21 02:39 | -37.29081 | 174.29963 | 28752 ft | 375 kts | 242° |
| 2026-04-21 02:39 | -37.30237 | 174.27015 | 29328 ft | 379 kts | 241° |
| 2026-04-21 02:40 | -37.31414 | 174.24016 | 29809 ft | 385 kts | 241° |
| 2026-04-21 02:40 | -37.32598 | 174.20986 | 30307 ft | 388 kts | 243° |
| 2026-04-21 02:40 | -37.33678 | 174.17858 | 30792 ft | 391 kts | 247° |
| 2026-04-21 02:40 | -37.34673 | 174.14660 | 31270 ft | 394 kts | 249° |
| 2026-04-21 02:41 | -37.35641 | 174.11427 | 31719 ft | 397 kts | 249° |
| 2026-04-21 02:41 | -37.36609 | 174.08165 | 32173 ft | 399 kts | 250° |
| 2026-04-21 02:41 | -37.37583 | 174.04891 | 32634 ft | 401 kts | 250° |
| 2026-04-21 02:41 | -37.38569 | 174.01592 | 33013 ft | 405 kts | 251° |
| 2026-04-21 02:42 | -37.39567 | 173.98273 | 33443 ft | 407 kts | 250° |
| 2026-04-21 02:42 | -37.40575 | 173.94929 | 33764 ft | 411 kts | 251° |
| 2026-04-21 02:42 | -37.41590 | 173.91571 | 34133 ft | 411 kts | 251° |
| 2026-04-21 02:42 | -37.42612 | 173.88191 | 34401 ft | 415 kts | 251° |
| 2026-04-21 02:43 | -37.43637 | 173.84802 | 34782 ft | 415 kts | 251° |
| 2026-04-21 02:43 | -37.44668 | 173.81389 | 34972 ft | 420 kts | 251° |
| 2026-04-21 02:43 | -37.45703 | 173.77956 | 35316 ft | 420 kts | 251° |
| 2026-04-21 02:43 | -37.46743 | 173.74502 | 35491 ft | 425 kts | 251° |
| 2026-04-21 02:44 | -37.47789 | 173.71025 | 35775 ft | 425 kts | 251° |
| 2026-04-21 02:44 | -37.48841 | 173.67524 | 35984 ft | 429 kts | 252° |
| 2026-04-21 02:44 | -37.49893 | 173.64021 | 36344 ft | 428 kts | 252° |
| 2026-04-21 02:44 | -37.50949 | 173.60497 | 36500 ft | 432 kts | 252° |
| 2026-04-21 02:45 | -37.52009 | 173.56954 | 36797 ft | 432 kts | 252° |
| 2026-04-21 02:45 | -37.53074 | 173.53391 | 36915 ft | 437 kts | 252° |
| 2026-04-21 02:45 | -37.54145 | 173.49804 | 37141 ft | 439 kts | 251° |
| 2026-04-21 02:46 | -37.56305 | 173.42555 | 37576 ft | 442 kts | 251° |
| 2026-04-21 02:46 | -37.57386 | 173.38919 | 37822 ft | 443 kts | 252° |
| 2026-04-21 02:46 | -37.58461 | 173.35303 | 38248 ft | 439 kts | 252° |
| 2026-04-21 02:46 | -37.59535 | 173.31685 | 38415 ft | 442 kts | 252° |
| 2026-04-21 02:47 | -37.60608 | 173.28061 | 38674 ft | 441 kts | 252° |
| 2026-04-21 02:47 | -37.61682 | 173.24432 | 38870 ft | 441 kts | 252° |
| 2026-04-21 02:47 | -37.62749 | 173.20823 | 39178 ft | 438 kts | 252° |
| 2026-04-21 02:47 | -37.63813 | 173.17214 | 39342 ft | 439 kts | 253° |
| 2026-04-21 02:48 | -37.64873 | 173.13617 | 39614 ft | 437 kts | 252° |
| 2026-04-21 02:48 | -37.65929 | 173.10033 | 39748 ft | 431 kts | 252° |
| 2026-04-21 02:48 | -37.66972 | 173.06487 | 39800 ft | 433 kts | 252° |
| 2026-04-21 02:49 | -37.69081 | 172.99282 | 39824 ft | 442 kts | 252° |
| 2026-04-21 02:49 | -37.71226 | 172.91943 | 39828 ft | 449 kts | 252° |
| 2026-04-21 02:50 | -37.73396 | 172.84505 | 39832 ft | 454 kts | 252° |
| 2026-04-21 02:50 | -37.75585 | 172.76979 | 39838 ft | 459 kts | 252° |
| 2026-04-21 02:51 | -37.77789 | 172.69384 | 39842 ft | 462 kts | 252° |
| 2026-04-21 02:51 | -37.79983 | 172.61802 | 39845 ft | 463 kts | 252° |
| 2026-04-21 02:52 | -37.82188 | 172.54162 | 39853 ft | 462 kts | 253° |
| 2026-04-21 02:52 | -37.84371 | 172.46575 | 39850 ft | 455 kts | 252° |
| 2026-04-21 02:53 | -37.86523 | 172.39077 | 39859 ft | 452 kts | 252° |
| 2026-04-21 02:53 | -37.88657 | 172.31614 | 39859 ft | 450 kts | 252° |
| 2026-04-21 02:54 | -37.90778 | 172.24174 | 39872 ft | 449 kts | 252° |
| 2026-04-21 02:54 | -37.92542 | 172.17973 | 39876 ft | 452 kts | 252° |
| 2026-04-21 02:55 | -37.94687 | 172.10409 | 39893 ft | 458 kts | 252° |
| 2026-04-21 02:55 | -37.96848 | 172.02774 | 39893 ft | 461 kts | 252° |
| 2026-04-21 02:56 | -37.99015 | 171.95096 | 39894 ft | 463 kts | 252° |
| 2026-04-21 02:56 | -38.02277 | 171.83495 | 39885 ft | 463 kts | 252° |
| 2026-04-21 02:57 | -38.04432 | 171.75801 | 39886 ft | 462 kts | 252° |
| 2026-04-21 02:57 | -38.06560 | 171.68182 | 39892 ft | 460 kts | 252° |
| 2026-04-21 02:58 | -38.08691 | 171.60529 | 39915 ft | 459 kts | 251° |
| 2026-04-21 02:58 | -38.10816 | 171.52877 | 39904 ft | 459 kts | 251° |
| 2026-04-21 02:59 | -38.12932 | 171.45234 | 39913 ft | 458 kts | 252° |
| 2026-04-21 02:59 | -38.15040 | 171.37598 | 39914 ft | 458 kts | 252° |
| 2026-04-21 03:00 | -38.17140 | 171.29967 | 39928 ft | 457 kts | 252° |
| 2026-04-21 03:00 | -38.19234 | 171.22337 | 39922 ft | 457 kts | 251° |
| 2026-04-21 03:01 | -38.21337 | 171.14652 | 39923 ft | 457 kts | 251° |
| 2026-04-21 03:01 | -38.23408 | 171.07058 | 39924 ft | 458 kts | 251° |
| 2026-04-21 03:02 | -38.25490 | 170.99409 | 39927 ft | 458 kts | 251° |
| 2026-04-21 03:02 | -38.27151 | 170.91611 | 39922 ft | 457 kts | 263° |
| 2026-04-21 03:03 | -38.27315 | 170.83545 | 39931 ft | 457 kts | 271° |
| 2026-04-21 03:03 | -38.27232 | 170.75463 | 39928 ft | 457 kts | 271° |
| 2026-04-21 03:04 | -38.27165 | 170.67363 | 39930 ft | 458 kts | 270° |
| 2026-04-21 03:04 | -38.27125 | 170.59259 | 39932 ft | 458 kts | 270° |
| 2026-04-21 03:05 | -38.27093 | 170.51148 | 39940 ft | 459 kts | 270° |
| 2026-04-21 03:05 | -38.27059 | 170.43031 | 39936 ft | 459 kts | 269° |
| 2026-04-21 03:06 | -38.27018 | 170.34913 | 39946 ft | 459 kts | 270° |
| 2026-04-21 03:06 | -38.26971 | 170.26786 | 39948 ft | 459 kts | 270° |
| 2026-04-21 03:07 | -38.26918 | 170.18656 | 39943 ft | 460 kts | 270° |
| 2026-04-21 03:07 | -38.26859 | 170.10519 | 39939 ft | 460 kts | 270° |
| 2026-04-21 03:08 | -38.26795 | 170.02383 | 39943 ft | 460 kts | 270° |
| 2026-04-21 03:08 | -38.26725 | 169.94249 | 39958 ft | 459 kts | 270° |
| 2026-04-21 03:09 | -38.26649 | 169.86118 | 39947 ft | 460 kts | 270° |
| 2026-04-21 03:09 | -38.26568 | 169.77979 | 39950 ft | 460 kts | 269° |
| 2026-04-21 03:10 | -38.26481 | 169.69841 | 39953 ft | 461 kts | 270° |
| 2026-04-21 03:10 | -38.26388 | 169.61684 | 39961 ft | 461 kts | 269° |
| 2026-04-21 03:11 | -38.26290 | 169.53525 | 39954 ft | 462 kts | 270° |
| 2026-04-21 03:11 | -38.26185 | 169.45350 | 39961 ft | 462 kts | 270° |
| 2026-04-21 03:12 | -38.26075 | 169.37174 | 39948 ft | 462 kts | 270° |
| 2026-04-21 03:12 | -38.25959 | 169.28987 | 39958 ft | 463 kts | 270° |
| 2026-04-21 03:13 | -38.25838 | 169.20800 | 39962 ft | 463 kts | 270° |
| 2026-04-21 03:13 | -38.25711 | 169.12611 | 39961 ft | 463 kts | 270° |
| 2026-04-21 03:14 | -38.25577 | 169.04410 | 39970 ft | 463 kts | 270° |
| 2026-04-21 03:14 | -38.25440 | 168.96267 | 39964 ft | 464 kts | 270° |
| 2026-04-21 03:15 | -38.25295 | 168.88066 | 39969 ft | 463 kts | 270° |
| 2026-04-21 03:15 | -38.25145 | 168.79878 | 39969 ft | 463 kts | 270° |
| 2026-04-21 03:16 | -38.24989 | 168.71682 | 39983 ft | 464 kts | 270° |
| 2026-04-21 03:16 | -38.24827 | 168.63477 | 39971 ft | 464 kts | 270° |
| 2026-04-21 03:17 | -38.24660 | 168.55271 | 39970 ft | 464 kts | 270° |
| 2026-04-21 03:17 | -38.24487 | 168.47069 | 39972 ft | 464 kts | 270° |
| 2026-04-21 03:18 | -38.24308 | 168.38865 | 39978 ft | 464 kts | 270° |
| 2026-04-21 03:18 | -38.24123 | 168.30658 | 39968 ft | 464 kts | 270° |
| 2026-04-21 03:19 | -38.23933 | 168.22452 | 39977 ft | 464 kts | 270° |
| 2026-04-21 03:19 | -38.23737 | 168.14238 | 39978 ft | 465 kts | 270° |
| 2026-04-21 03:20 | -38.23535 | 168.06013 | 39979 ft | 465 kts | 270° |
| 2026-04-21 03:20 | -38.23327 | 167.97788 | 39978 ft | 465 kts | 270° |
| 2026-04-21 03:21 | -38.23113 | 167.89564 | 39971 ft | 466 kts | 271° |
| 2026-04-21 03:21 | -38.22893 | 167.81336 | 39980 ft | 466 kts | 271° |
| 2026-04-21 03:22 | -38.22667 | 167.73098 | 39978 ft | 466 kts | 271° |
| 2026-04-21 03:22 | -38.22436 | 167.64865 | 39976 ft | 466 kts | 271° |
| 2026-04-21 03:23 | -38.22199 | 167.56627 | 39968 ft | 466 kts | 271° |
| 2026-04-21 03:23 | -38.21956 | 167.48388 | 39979 ft | 466 kts | 271° |
| 2026-04-21 03:24 | -38.21708 | 167.40195 | 39975 ft | 467 kts | 271° |
| 2026-04-21 03:24 | -38.21454 | 167.31940 | 39981 ft | 468 kts | 271° |
| 2026-04-21 03:25 | -38.21192 | 167.23671 | 39976 ft | 468 kts | 271° |
| 2026-04-21 03:25 | -38.20925 | 167.15402 | 39972 ft | 468 kts | 270° |
| 2026-04-21 03:26 | -38.20652 | 167.07128 | 39978 ft | 469 kts | 270° |
| 2026-04-21 03:26 | -38.20373 | 166.98847 | 39978 ft | 469 kts | 270° |
| 2026-04-21 03:27 | -38.20088 | 166.90568 | 39976 ft | 469 kts | 271° |
| 2026-04-21 03:27 | -38.19797 | 166.82289 | 39970 ft | 469 kts | 270° |
| 2026-04-21 03:28 | -38.19501 | 166.74020 | 39978 ft | 468 kts | 270° |
| 2026-04-21 03:28 | -38.19199 | 166.65752 | 39982 ft | 468 kts | 271° |
| 2026-04-21 03:29 | -38.18891 | 166.57488 | 39978 ft | 468 kts | 271° |
| 2026-04-21 03:29 | -38.18578 | 166.49227 | 39969 ft | 468 kts | 271° |
| 2026-04-21 03:30 | -38.18259 | 166.40968 | 39979 ft | 467 kts | 271° |
| 2026-04-21 03:30 | -38.17936 | 166.32772 | 39986 ft | 467 kts | 271° |
| 2026-04-21 03:31 | -38.17604 | 166.24465 | 39983 ft | 467 kts | 271° |
| 2026-04-21 03:31 | -38.17267 | 166.16215 | 39992 ft | 467 kts | 271° |
| 2026-04-21 03:32 | -38.16926 | 166.07972 | 39980 ft | 467 kts | 271° |
| 2026-04-21 03:32 | -38.16578 | 165.99732 | 39987 ft | 467 kts | 271° |
| 2026-04-21 03:33 | -38.16225 | 165.91493 | 39989 ft | 467 kts | 271° |
| 2026-04-21 03:33 | -38.15869 | 165.83309 | 39989 ft | 467 kts | 271° |
| 2026-04-21 03:34 | -38.15504 | 165.75071 | 39981 ft | 467 kts | 271° |
| 2026-04-21 03:34 | -38.15133 | 165.66833 | 39991 ft | 467 kts | 271° |
| 2026-04-21 03:35 | -38.14757 | 165.58595 | 39992 ft | 467 kts | 271° |
| 2026-04-21 03:35 | -38.14375 | 165.50346 | 39992 ft | 467 kts | 271° |
| 2026-04-21 03:36 | -38.13987 | 165.42109 | 39995 ft | 468 kts | 271° |
| 2026-04-21 03:36 | -38.13593 | 165.33867 | 40000 ft | 468 kts | 271° |
| 2026-04-21 03:37 | -38.13194 | 165.25623 | 40001 ft | 468 kts | 271° |
| 2026-04-21 03:37 | -38.12788 | 165.17379 | 40001 ft | 468 kts | 271° |
| 2026-04-21 03:38 | -38.12377 | 165.09136 | 39998 ft | 468 kts | 271° |
| 2026-04-21 03:38 | -38.11960 | 165.00888 | 39993 ft | 468 kts | 271° |
| 2026-04-21 03:39 | -38.11536 | 164.92637 | 40002 ft | 468 kts | 271° |
| 2026-04-21 03:39 | -38.11177 | 164.85720 | 39999 ft | 469 kts | 271° |
| 2026-04-21 03:40 | -38.10743 | 164.77460 | 40004 ft | 469 kts | 271° |
| 2026-04-21 03:40 | -38.10302 | 164.69188 | 39990 ft | 469 kts | 271° |
| 2026-04-21 03:41 | -38.09855 | 164.60925 | 40005 ft | 469 kts | 271° |
| 2026-04-21 03:41 | -38.09406 | 164.52710 | 40004 ft | 470 kts | 271° |
| 2026-04-21 03:42 | -38.08944 | 164.44377 | 40008 ft | 470 kts | 271° |
| 2026-04-21 03:42 | -38.08480 | 164.36102 | 40010 ft | 470 kts | 271° |
| 2026-04-21 03:43 | -38.08012 | 164.27886 | 40007 ft | 470 kts | 270° |
| 2026-04-21 03:43 | -38.07536 | 164.19616 | 40008 ft | 469 kts | 270° |
| 2026-04-21 03:44 | -38.07055 | 164.11355 | 40012 ft | 469 kts | 270° |
| 2026-04-21 03:44 | -38.06569 | 164.03098 | 40019 ft | 469 kts | 271° |
| 2026-04-21 03:45 | -38.06076 | 163.94841 | 40013 ft | 469 kts | 270° |
| 2026-04-21 03:45 | -38.05578 | 163.86600 | 40018 ft | 468 kts | 270° |
| 2026-04-21 03:46 | -38.05075 | 163.78364 | 40022 ft | 468 kts | 271° |
| 2026-04-21 03:46 | -38.04567 | 163.70132 | 40022 ft | 468 kts | 271° |
| 2026-04-21 03:47 | -38.04053 | 163.61906 | 40008 ft | 467 kts | 270° |
| 2026-04-21 03:47 | -38.03533 | 163.53687 | 40018 ft | 467 kts | 270° |
| 2026-04-21 03:48 | -38.03009 | 163.45483 | 40029 ft | 467 kts | 271° |
| 2026-04-21 03:48 | -38.02479 | 163.37281 | 40030 ft | 467 kts | 271° |
| 2026-04-21 03:49 | -38.01944 | 163.29079 | 40016 ft | 467 kts | 271° |
| 2026-04-21 03:49 | -38.01403 | 163.20886 | 40032 ft | 466 kts | 271° |
| 2026-04-21 03:50 | -38.00857 | 163.12695 | 40040 ft | 466 kts | 271° |
| 2026-04-21 03:50 | -38.00306 | 163.04504 | 40039 ft | 466 kts | 271° |
| 2026-04-21 03:51 | -37.99263 | 162.96424 | 40045 ft | 472 kts | 282° |
| 2026-04-21 03:51 | -37.97292 | 162.88471 | 40043 ft | 473 kts | 284° |
| 2026-04-21 03:52 | -37.95258 | 162.80548 | 40048 ft | 473 kts | 284° |
| 2026-04-21 03:52 | -37.93253 | 162.72601 | 40049 ft | 473 kts | 283° |
| 2026-04-21 03:53 | -37.91271 | 162.64642 | 40051 ft | 474 kts | 283° |
| 2026-04-21 03:53 | -37.89295 | 162.56688 | 40039 ft | 474 kts | 283° |
| 2026-04-21 03:54 | -37.87314 | 162.48738 | 40056 ft | 473 kts | 283° |
| 2026-04-21 03:54 | -37.85327 | 162.40793 | 40058 ft | 474 kts | 283° |
| 2026-04-21 03:55 | -37.83333 | 162.32852 | 40060 ft | 474 kts | 283° |
| 2026-04-21 03:55 | -37.81333 | 162.24917 | 40047 ft | 474 kts | 283° |
| 2026-04-21 03:56 | -37.79330 | 162.16993 | 40066 ft | 473 kts | 283° |
| 2026-04-21 03:56 | -37.77322 | 162.09072 | 40074 ft | 473 kts | 283° |
| 2026-04-21 03:57 | -37.75311 | 162.01164 | 40075 ft | 473 kts | 283° |
| 2026-04-21 03:57 | -37.73292 | 161.93252 | 40077 ft | 473 kts | 284° |
| 2026-04-21 03:58 | -37.71269 | 161.85349 | 40077 ft | 473 kts | 284° |
| 2026-04-21 03:58 | -37.69241 | 161.77450 | 40084 ft | 473 kts | 284° |
| 2026-04-21 03:59 | -37.67207 | 161.69554 | 40082 ft | 473 kts | 284° |
| 2026-04-21 04:00 | -37.64161 | 161.57775 | 40086 ft | 473 kts | 284° |
| 2026-04-21 04:00 | -37.62116 | 161.49896 | 40085 ft | 472 kts | 284° |
| 2026-04-21 04:01 | -37.60066 | 161.42024 | 40099 ft | 472 kts | 284° |
| 2026-04-21 04:01 | -37.58011 | 161.34156 | 40094 ft | 472 kts | 284° |
| 2026-04-21 04:02 | -37.55950 | 161.26290 | 40099 ft | 472 kts | 284° |
| 2026-04-21 04:02 | -37.53884 | 161.18432 | 40085 ft | 472 kts | 283° |
| 2026-04-21 04:03 | -37.51815 | 161.10584 | 40102 ft | 472 kts | 283° |
| 2026-04-21 04:03 | -37.49741 | 161.02739 | 40103 ft | 472 kts | 284° |
| 2026-04-21 04:04 | -37.47659 | 160.94891 | 40109 ft | 472 kts | 284° |
| 2026-04-21 04:04 | -37.45573 | 160.87050 | 40095 ft | 472 kts | 284° |
| 2026-04-21 04:05 | -37.43481 | 160.79212 | 40107 ft | 472 kts | 284° |
| 2026-04-21 04:05 | -37.41385 | 160.71384 | 40123 ft | 472 kts | 284° |
| 2026-04-21 04:06 | -37.39284 | 160.63557 | 40120 ft | 472 kts | 284° |
| 2026-04-21 04:06 | -37.37177 | 160.55731 | 40121 ft | 473 kts | 284° |
| 2026-04-21 04:07 | -37.35065 | 160.47915 | 40119 ft | 472 kts | 284° |
| 2026-04-21 04:07 | -37.32952 | 160.40115 | 40123 ft | 471 kts | 284° |
| 2026-04-21 04:08 | -37.30834 | 160.32321 | 40134 ft | 471 kts | 284° |
| 2026-04-21 04:08 | -37.28712 | 160.24535 | 40143 ft | 471 kts | 284° |
| 2026-04-21 04:09 | -37.26586 | 160.16756 | 40129 ft | 471 kts | 284° |
| 2026-04-21 04:09 | -37.24457 | 160.08991 | 40139 ft | 470 kts | 284° |
| 2026-04-21 04:10 | -37.22325 | 160.01237 | 40144 ft | 470 kts | 284° |
| 2026-04-21 04:10 | -37.20189 | 159.93492 | 40147 ft | 470 kts | 284° |
| 2026-04-21 04:11 | -37.18046 | 159.85744 | 40131 ft | 470 kts | 284° |
| 2026-04-21 04:11 | -37.15902 | 159.78013 | 40147 ft | 469 kts | 284° |
| 2026-04-21 04:12 | -37.13754 | 159.70294 | 40152 ft | 469 kts | 284° |
| 2026-04-21 04:12 | -37.11602 | 159.62579 | 40161 ft | 469 kts | 284° |
| 2026-04-21 04:13 | -37.09445 | 159.54872 | 40158 ft | 469 kts | 284° |
| 2026-04-21 04:13 | -37.07284 | 159.47169 | 40157 ft | 468 kts | 284° |
| 2026-04-21 04:14 | -37.05121 | 159.39484 | 40159 ft | 468 kts | 284° |
| 2026-04-21 04:14 | -37.02954 | 159.31808 | 40167 ft | 468 kts | 284° |
| 2026-04-21 04:15 | -37.00784 | 159.24139 | 40170 ft | 468 kts | 284° |
| 2026-04-21 04:15 | -36.98609 | 159.16474 | 40162 ft | 467 kts | 284° |
| 2026-04-21 04:16 | -36.96430 | 159.08819 | 40174 ft | 467 kts | 284° |
| 2026-04-21 04:16 | -36.94247 | 159.01174 | 40176 ft | 467 kts | 284° |
| 2026-04-21 04:17 | -36.92061 | 158.93536 | 40179 ft | 467 kts | 284° |
| 2026-04-21 04:17 | -36.89871 | 158.85906 | 40165 ft | 467 kts | 284° |
| 2026-04-21 04:18 | -36.87675 | 158.78277 | 40180 ft | 466 kts | 284° |
| 2026-04-21 04:18 | -36.85477 | 158.70664 | 40189 ft | 466 kts | 284° |
| 2026-04-21 04:19 | -36.83273 | 158.63049 | 40191 ft | 466 kts | 284° |
| 2026-04-21 04:19 | -36.81065 | 158.55440 | 40194 ft | 466 kts | 284° |
| 2026-04-21 04:20 | -36.78852 | 158.47837 | 40196 ft | 466 kts | 284° |
| 2026-04-21 04:20 | -36.76632 | 158.40232 | 40196 ft | 466 kts | 284° |
| 2026-04-21 04:21 | -36.74407 | 158.32632 | 40195 ft | 467 kts | 284° |
| 2026-04-21 04:21 | -36.72194 | 158.25090 | 40196 ft | 467 kts | 284° |
| 2026-04-21 04:22 | -36.69944 | 158.17446 | 40188 ft | 466 kts | 284° |
| 2026-04-21 04:22 | -36.67722 | 158.09915 | 40200 ft | 466 kts | 284° |
| 2026-04-21 04:23 | -36.65478 | 158.02333 | 40207 ft | 467 kts | 284° |
| 2026-04-21 04:23 | -36.63593 | 157.95978 | 40203 ft | 467 kts | 284° |
| 2026-04-21 04:24 | -36.60972 | 157.87168 | 40207 ft | 467 kts | 284° |
| 2026-04-21 04:24 | -36.58714 | 157.79598 | 40207 ft | 466 kts | 284° |
| 2026-04-21 04:25 | -36.56453 | 157.72041 | 40212 ft | 466 kts | 284° |
| 2026-04-21 04:25 | -36.54570 | 157.65759 | 40215 ft | 466 kts | 284° |
| 2026-04-21 04:26 | -36.52299 | 157.58206 | 40215 ft | 466 kts | 284° |
| 2026-04-21 04:26 | -36.50025 | 157.50660 | 40206 ft | 466 kts | 284° |
| 2026-04-21 04:27 | -36.47746 | 157.43121 | 40211 ft | 466 kts | 284° |
| 2026-04-21 04:27 | -36.45465 | 157.35594 | 40220 ft | 465 kts | 284° |
| 2026-04-21 04:28 | -36.43180 | 157.28072 | 40226 ft | 466 kts | 284° |
| 2026-04-21 04:28 | -36.40889 | 157.20553 | 40202 ft | 465 kts | 284° |
| 2026-04-21 04:29 | -36.38596 | 157.13048 | 40217 ft | 465 kts | 284° |
| 2026-04-21 04:29 | -36.36299 | 157.05547 | 40228 ft | 465 kts | 284° |
| 2026-04-21 04:30 | -36.33998 | 156.98053 | 40227 ft | 465 kts | 284° |
| 2026-04-21 04:30 | -36.31693 | 156.90565 | 40234 ft | 465 kts | 284° |
| 2026-04-21 04:31 | -36.29383 | 156.83083 | 40230 ft | 465 kts | 284° |
| 2026-04-21 04:31 | -36.27070 | 156.75607 | 40238 ft | 465 kts | 284° |
| 2026-04-21 04:32 | -36.24751 | 156.68135 | 40236 ft | 465 kts | 284° |
| 2026-04-21 04:32 | -36.22428 | 156.60665 | 40243 ft | 465 kts | 285° |
| 2026-04-21 04:33 | -36.20099 | 156.53199 | 40234 ft | 464 kts | 285° |
| 2026-04-21 04:33 | -36.17767 | 156.45742 | 40238 ft | 464 kts | 285° |
| 2026-04-21 04:34 | -36.15433 | 156.38295 | 40240 ft | 464 kts | 285° |
| 2026-04-21 04:34 | -36.13091 | 156.30846 | 40244 ft | 465 kts | 285° |
| 2026-04-21 04:35 | -36.10744 | 156.23398 | 40229 ft | 465 kts | 285° |
| 2026-04-21 04:35 | -36.08396 | 156.15965 | 40244 ft | 464 kts | 285° |
| 2026-04-21 04:36 | -36.06041 | 156.08532 | 40254 ft | 464 kts | 285° |
| 2026-04-21 04:36 | -36.03683 | 156.01105 | 40252 ft | 464 kts | 285° |
| 2026-04-21 04:37 | -36.01322 | 155.93688 | 40256 ft | 464 kts | 285° |
| 2026-04-21 04:37 | -35.98955 | 155.86273 | 40252 ft | 464 kts | 285° |
| 2026-04-21 04:38 | -35.96602 | 155.78917 | 40258 ft | 464 kts | 285° |
| 2026-04-21 04:38 | -35.94229 | 155.71519 | 40258 ft | 464 kts | 285° |
| 2026-04-21 04:39 | -35.91850 | 155.64122 | 40261 ft | 464 kts | 285° |
| 2026-04-21 04:39 | -35.89466 | 155.56727 | 40259 ft | 463 kts | 285° |
| 2026-04-21 04:40 | -35.87082 | 155.49350 | 40259 ft | 463 kts | 285° |
| 2026-04-21 04:40 | -35.84694 | 155.41979 | 40269 ft | 463 kts | 285° |
| 2026-04-21 04:41 | -35.82301 | 155.34611 | 40268 ft | 463 kts | 285° |
| 2026-04-21 04:41 | -35.79903 | 155.27244 | 40265 ft | 463 kts | 285° |
| 2026-04-21 04:42 | -35.77500 | 155.19882 | 40265 ft | 463 kts | 285° |
| 2026-04-21 04:42 | -35.75094 | 155.12529 | 40266 ft | 463 kts | 285° |
| 2026-04-21 04:43 | -35.72681 | 155.05173 | 40267 ft | 463 kts | 285° |
| 2026-04-21 04:43 | -35.70263 | 154.97819 | 40254 ft | 463 kts | 285° |
| 2026-04-21 04:44 | -35.67851 | 154.90503 | 40263 ft | 461 kts | 285° |
| 2026-04-21 04:44 | -35.65461 | 154.83267 | 40271 ft | 459 kts | 285° |
| 2026-04-21 04:45 | -35.63059 | 154.76008 | 40269 ft | 458 kts | 285° |
| 2026-04-21 04:45 | -35.60446 | 154.68860 | 40264 ft | 464 kts | 295° |
| 2026-04-21 04:46 | -35.56448 | 154.62520 | 40278 ft | 472 kts | 305° |
| 2026-04-21 04:46 | -35.52107 | 154.56456 | 40281 ft | 473 kts | 305° |
| 2026-04-21 04:47 | -35.47775 | 154.50382 | 40276 ft | 473 kts | 305° |
| 2026-04-21 04:47 | -35.43475 | 154.44282 | 40278 ft | 473 kts | 304° |
| 2026-04-21 04:48 | -35.39189 | 154.38177 | 40280 ft | 473 kts | 304° |
| 2026-04-21 04:48 | -35.34900 | 154.32073 | 40275 ft | 472 kts | 304° |
| 2026-04-21 04:49 | -35.30610 | 154.25982 | 40273 ft | 472 kts | 305° |
| 2026-04-21 04:49 | -35.26321 | 154.19904 | 40279 ft | 472 kts | 305° |
| 2026-04-21 04:50 | -35.22024 | 154.13827 | 40280 ft | 472 kts | 305° |
| 2026-04-21 04:50 | -35.17728 | 154.07763 | 40284 ft | 472 kts | 305° |
| 2026-04-21 04:51 | -35.13426 | 154.01700 | 40276 ft | 471 kts | 305° |
| 2026-04-21 04:51 | -35.09129 | 153.95655 | 40276 ft | 471 kts | 305° |
| 2026-04-21 04:52 | -35.04826 | 153.89612 | 40274 ft | 471 kts | 305° |
| 2026-04-21 04:52 | -35.00523 | 153.83580 | 40287 ft | 471 kts | 305° |
| 2026-04-21 04:53 | -34.96224 | 153.77562 | 40281 ft | 471 kts | 305° |
| 2026-04-21 04:53 | -34.91914 | 153.71541 | 40279 ft | 470 kts | 306° |
| 2026-04-21 04:54 | -34.87614 | 153.65545 | 40279 ft | 470 kts | 306° |
| 2026-04-21 04:54 | -34.83306 | 153.59548 | 40287 ft | 470 kts | 306° |
| 2026-04-21 04:55 | -34.79004 | 153.53569 | 40288 ft | 470 kts | 306° |
| 2026-04-21 04:55 | -34.74693 | 153.47586 | 40294 ft | 470 kts | 306° |
| 2026-04-21 04:56 | -34.70383 | 153.41618 | 40275 ft | 470 kts | 306° |
| 2026-04-21 04:56 | -34.66101 | 153.35698 | 40286 ft | 469 kts | 306° |
| 2026-04-21 04:57 | -34.61788 | 153.29745 | 40288 ft | 469 kts | 306° |
| 2026-04-21 04:57 | -34.57476 | 153.23803 | 40294 ft | 469 kts | 306° |
| 2026-04-21 04:58 | -34.53161 | 153.17866 | 40293 ft | 469 kts | 306° |
| 2026-04-21 04:58 | -34.48842 | 153.11934 | 40269 ft | 469 kts | 306° |
| 2026-04-21 04:59 | -34.44525 | 153.06017 | 40284 ft | 469 kts | 306° |
| 2026-04-21 04:59 | -34.40206 | 153.00105 | 40292 ft | 469 kts | 306° |
| 2026-04-21 05:00 | -34.35883 | 152.94198 | 40293 ft | 469 kts | 306° |
| 2026-04-21 05:00 | -34.29393 | 152.85349 | 40275 ft | 469 kts | 306° |
| 2026-04-21 05:01 | -34.27217 | 152.82384 | 39846 ft | 470 kts | 306° |
| 2026-04-21 05:01 | -34.25052 | 152.79442 | 39152 ft | 470 kts | 306° |
| 2026-04-21 05:01 | -34.22880 | 152.76490 | 38335 ft | 470 kts | 306° |
| 2026-04-21 05:01 | -34.20712 | 152.73547 | 37621 ft | 467 kts | 306° |
| 2026-04-21 05:02 | -34.18557 | 152.70624 | 36883 ft | 466 kts | 306° |
| 2026-04-21 05:02 | -34.16403 | 152.67702 | 36135 ft | 465 kts | 306° |
| 2026-04-21 05:02 | -34.14250 | 152.64784 | 35298 ft | 467 kts | 306° |
| 2026-04-21 05:02 | -34.12083 | 152.61849 | 34446 ft | 469 kts | 306° |
| 2026-04-21 05:03 | -34.10075 | 152.58762 | 33381 ft | 466 kts | 296° |
| 2026-04-21 05:03 | -34.08622 | 152.55313 | 32435 ft | 458 kts | 286° |
| 2026-04-21 05:03 | -34.07686 | 152.51710 | 31389 ft | 454 kts | 277° |
| 2026-04-21 05:03 | -34.07255 | 152.47955 | 30349 ft | 452 kts | 271° |
| 2026-04-21 05:04 | -34.06940 | 152.44177 | 29061 ft | 455 kts | 271° |
| 2026-04-21 05:04 | -34.06632 | 152.40369 | 27796 ft | 457 kts | 271° |
| 2026-04-21 05:04 | -34.06311 | 152.36553 | 26569 ft | 458 kts | 271° |
| 2026-04-21 05:04 | -34.05972 | 152.32739 | 25530 ft | 456 kts | 271° |
| 2026-04-21 05:05 | -34.05621 | 152.28949 | 24538 ft | 453 kts | 272° |
| 2026-04-21 05:05 | -34.05265 | 152.25186 | 23504 ft | 450 kts | 272° |
| 2026-04-21 05:05 | -34.04909 | 152.21454 | 22431 ft | 446 kts | 272° |
| 2026-04-21 05:05 | -34.04556 | 152.17759 | 21440 ft | 440 kts | 272° |
| 2026-04-21 05:06 | -34.04208 | 152.14115 | 20488 ft | 435 kts | 273° |
| 2026-04-21 05:06 | -34.03865 | 152.10516 | 19552 ft | 430 kts | 273° |
| 2026-04-21 05:06 | -34.03523 | 152.06958 | 18608 ft | 426 kts | 273° |
| 2026-04-21 05:06 | -34.03176 | 152.03426 | 17538 ft | 422 kts | 274° |
| 2026-04-21 05:07 | -34.02821 | 151.99942 | 16560 ft | 416 kts | 274° |
| 2026-04-21 05:07 | -34.02468 | 151.96500 | 15617 ft | 411 kts | 274° |
| 2026-04-21 05:07 | -34.02120 | 151.93111 | 14698 ft | 405 kts | 274° |
| 2026-04-21 05:07 | -34.01776 | 151.89760 | 13748 ft | 401 kts | 274° |
| 2026-04-21 05:08 | -34.01438 | 151.86447 | 12758 ft | 396 kts | 274° |
| 2026-04-21 05:08 | -34.01102 | 151.83168 | 11737 ft | 393 kts | 274° |
| 2026-04-21 05:08 | -34.00766 | 151.79902 | 10903 ft | 389 kts | 274° |
| 2026-04-21 05:08 | -34.00440 | 151.76767 | 10636 ft | 368 kts | 274° |
| 2026-04-21 05:09 | -34.00132 | 151.73792 | 10460 ft | 348 kts | 274° |
| 2026-04-21 05:09 | -33.99840 | 151.70976 | 10301 ft | 330 kts | 273° |
| 2026-04-21 05:09 | -33.99566 | 151.68297 | 10166 ft | 314 kts | 274° |
| 2026-04-21 05:09 | -33.99305 | 151.65754 | 10013 ft | 299 kts | 274° |
| 2026-04-21 05:10 | -33.99055 | 151.63325 | 9940 ft | 284 kts | 273° |
| 2026-04-21 05:10 | -33.98811 | 151.60958 | 9439 ft | 285 kts | 273° |
| 2026-04-21 05:10 | -33.98567 | 151.58600 | 9065 ft | 282 kts | 274° |
| 2026-04-21 05:10 | -33.98325 | 151.56277 | 8813 ft | 276 kts | 272° |
| 2026-04-21 05:11 | -33.98088 | 151.54001 | 8588 ft | 273 kts | 272° |
| 2026-04-21 05:11 | -33.97736 | 151.51761 | 8365 ft | 277 kts | 290° |
| 2026-04-21 05:11 | -33.96531 | 151.49936 | 8156 ft | 286 kts | 324° |
| 2026-04-21 05:11 | -33.94698 | 151.48992 | 7986 ft | 289 kts | 342° |
| 2026-04-21 05:12 | -33.93419 | 151.48530 | 7848 ft | 291 kts | 342° |
| 2026-04-21 05:12 | -33.90827 | 151.47604 | 7561 ft | 290 kts | 343° |
| 2026-04-21 05:12 | -33.89545 | 151.47150 | 7431 ft | 289 kts | 343° |
| 2026-04-21 05:12 | -33.87621 | 151.46470 | 7215 ft | 287 kts | 343° |
| 2026-04-21 05:13 | -33.85717 | 151.45799 | 6956 ft | 284 kts | 343° |
| 2026-04-21 05:13 | -33.83827 | 151.45133 | 6633 ft | 282 kts | 343° |
| 2026-04-21 05:13 | -33.81941 | 151.44468 | 6233 ft | 283 kts | 343° |
| 2026-04-21 05:13 | -33.80062 | 151.43808 | 5906 ft | 280 kts | 343° |
| 2026-04-21 05:14 | -33.78194 | 151.43153 | 5496 ft | 280 kts | 343° |
| 2026-04-21 05:14 | -33.76327 | 151.42499 | 5190 ft | 277 kts | 343° |
| 2026-04-21 05:14 | -33.74481 | 151.41852 | 4776 ft | 278 kts | 343° |
| 2026-04-21 05:14 | -33.72630 | 151.41202 | 4444 ft | 275 kts | 343° |
| 2026-04-21 05:15 | -33.70797 | 151.40558 | 4083 ft | 275 kts | 343° |
| 2026-04-21 05:15 | -33.68997 | 151.39807 | 3966 ft | 273 kts | 327° |
| 2026-04-21 05:15 | -33.67713 | 151.38233 | 3829 ft | 260 kts | 292° |
| 2026-04-21 05:15 | -33.67259 | 151.36188 | 3442 ft | 252 kts | 273° |
| 2026-04-21 05:16 | -33.67000 | 151.34098 | 3062 ft | 254 kts | 274° |
| 2026-04-21 05:16 | -33.66745 | 151.32021 | 2984 ft | 247 kts | 273° |
| 2026-04-21 05:16 | -33.66527 | 151.30024 | 2952 ft | 234 kts | 273° |
| 2026-04-21 05:16 | -33.66318 | 151.28160 | 2959 ft | 217 kts | 272° |
| 2026-04-21 05:17 | -33.66109 | 151.26396 | 2956 ft | 211 kts | 273° |
| 2026-04-21 05:17 | -33.65895 | 151.24666 | 2986 ft | 209 kts | 272° |
| 2026-04-21 05:17 | -33.65689 | 151.22924 | 2974 ft | 213 kts | 273° |
| 2026-04-21 05:17 | -33.65491 | 151.21148 | 2972 ft | 215 kts | 272° |
| 2026-04-21 05:18 | -33.65421 | 151.19380 | 2948 ft | 209 kts | 255° |
| 2026-04-21 05:18 | -33.65724 | 151.17703 | 2971 ft | 204 kts | 252° |
| 2026-04-21 05:18 | -33.66040 | 151.16061 | 2960 ft | 197 kts | 242° |
| 2026-04-21 05:18 | -33.66843 | 151.14819 | 2984 ft | 189 kts | 223° |
| 2026-04-21 05:19 | -33.67469 | 151.13390 | 2961 ft | 199 kts | 249° |
| 2026-04-21 05:19 | -33.68055 | 151.11942 | 2959 ft | 189 kts | 216° |
| 2026-04-21 05:19 | -33.69237 | 151.11446 | 2956 ft | 183 kts | 175° |
| 2026-04-21 05:19 | -33.70499 | 151.11599 | 2970 ft | 183 kts | 174° |
| 2026-04-21 05:20 | -33.71772 | 151.11757 | 2974 ft | 186 kts | 172° |
| 2026-04-21 05:20 | -33.73055 | 151.12009 | 2977 ft | 188 kts | 169° |
| 2026-04-21 05:20 | -33.74335 | 151.12314 | 2967 ft | 186 kts | 168° |
| 2026-04-21 05:20 | -33.75588 | 151.12633 | 2986 ft | 182 kts | 168° |
| 2026-04-21 05:21 | -33.76828 | 151.12954 | 2971 ft | 183 kts | 168° |
| 2026-04-21 05:21 | -33.78071 | 151.13278 | 2964 ft | 183 kts | 168° |
| 2026-04-21 05:21 | -33.79332 | 151.13607 | 2796 ft | 188 kts | 168° |
| 2026-04-21 05:21 | -33.80589 | 151.13936 | 2548 ft | 178 kts | 168° |
| 2026-04-21 05:22 | -33.81730 | 151.14234 | 2328 ft | 159 kts | 169° |
| 2026-04-21 05:22 | -33.82751 | 151.14500 | 2155 ft | 140 kts | 168° |
| 2026-04-21 05:22 | -33.83649 | 151.14734 | 1940 ft | 124 kts | 168° |
| 2026-04-21 05:22 | -33.84455 | 151.14944 | 1780 ft | 114 kts | 169° |
| 2026-04-21 05:23 | -33.85199 | 151.15138 | 1659 ft | 109 kts | 169° |
| 2026-04-21 05:23 | -33.85957 | 151.15335 | 1510 ft | 112 kts | 168° |
| 2026-04-21 05:23 | -33.86711 | 151.15532 | 1350 ft | 109 kts | 169° |
| 2026-04-21 05:23 | -33.87459 | 151.15736 | 1204 ft | 116 kts | 169° |
| 2026-04-21 05:24 | -33.88254 | 151.15952 | 1132 ft | 116 kts | 170° |
| 2026-04-21 05:24 | -33.89027 | 151.16149 | 923 ft | 110 kts | 169° |
| 2026-04-21 05:24 | -33.89779 | 151.16359 | 754 ft | 113 kts | 169° |
| 2026-04-21 05:24 | -33.90544 | 151.16554 | 607 ft | 114 kts | 169° |
| 2026-04-21 05:25 | -33.91348 | 151.16758 | 410 ft | 121 kts | 168° |
| 2026-04-21 05:25 | -33.92147 | 151.16972 | 313 ft | 115 kts | 169° |
| 2026-04-21 05:25 | -33.92909 | 151.17156 | 109 ft | 110 kts | 168° |
| 2026-04-21 05:25 | -33.93617 | 151.17340 | 27 ft | 93 kts | 168° |
| 2026-04-21 05:26 | -33.94126 | 151.17476 | 26 ft | 57 kts | 168° |
| 2026-04-21 05:26 | -33.94395 | 151.17546 | 29 ft | 22 kts | 168° |
| 2026-04-21 05:26 | -33.94499 | 151.17574 | 29 ft | 14 kts | 167° |
| 2026-04-21 05:26 | -33.94525 | 151.17672 | 29 ft | 14 kts | 57° |
| 2026-04-21 05:27 | -33.94439 | 151.17717 | 29 ft | 13 kts | 19° |
| 2026-04-21 05:27 | -33.94349 | 151.17735 | 29 ft | 13 kts | 358° |
| 2026-04-21 05:27 | -33.94263 | 151.17714 | 28 ft | 13 kts | 346° |
| 2026-04-21 05:27 | -33.94154 | 151.17681 | 28 ft | 18 kts | 346° |
| 2026-04-21 05:28 | -33.94030 | 151.17646 | 27 ft | 18 kts | 349° |
| 2026-04-21 05:28 | -33.93909 | 151.17614 | 28 ft | 17 kts | 347° |
| 2026-04-21 05:28 | -33.93792 | 151.17583 | 28 ft | 17 kts | 347° |
| 2026-04-21 05:28 | -33.93680 | 151.17553 | 28 ft | 16 kts | 347° |
| 2026-04-21 05:29 | -33.93571 | 151.17525 | 28 ft | 16 kts | 348° |
| 2026-04-21 05:29 | -33.93467 | 151.17500 | 29 ft | 15 kts | 354° |
| 2026-04-21 05:29 | -33.93366 | 151.17500 | 29 ft | 14 kts | 347° |
| 2026-04-21 05:29 | -33.93270 | 151.17475 | 29 ft | 14 kts | 348° |
| 2026-04-21 05:30 | -33.93179 | 151.17451 | 29 ft | 13 kts | 348° |
| 2026-04-21 05:30 | -33.93077 | 151.17426 | 29 ft | 17 kts | 349° |
| 2026-04-21 05:30 | -33.92958 | 151.17393 | 29 ft | 17 kts | 345° |
| 2026-04-21 05:30 | -33.92841 | 151.17378 | 29 ft | 17 kts | 349° |
| 2026-04-21 05:31 | -33.92780 | 151.17414 | 29 ft | 5 kts | 73° |
| 2026-04-21 05:31 | -33.92774 | 151.17445 | 29 ft | 2 kts | 77° |
| 2026-04-21 05:31 | -33.92771 | 151.17462 | 29 ft | 0 kts | 78° |
| 2026-04-21 05:31 | -33.92771 | 151.17463 | 29 ft | 0 kts | 78° |